Weather at Jack Northrop Field Hawthorne Municipal Airport

Public forecast

Using degrees Fahrenheit for public forecast. Weather courtesy of forecast.io.

Current aviation weather report (METAR) for Jack Northrop Field Hawthorne Municipal Airport

Retrieved 2022/08/13 17:53 UTC (15 minutes ago):

KHHR 131753Z 10SM CLR 28/16 A2995 RMK AO2 SLP141 T02830161 10283 20206 53003

Closest aviation forecast (TAF) to Jack Northrop Field Hawthorne Municipal Airport

Closest forecast is Los Angeles International Airport, 3.8 nm (7.1 km) WNW. Retrieved 2022/08/13 18:51 UTC (0 seconds ago):

TAF KLAX 131748Z 1318/1424 26007KT P6SM FEW150 FEW250 FM132000 26014KT P6SM FEW250 FM140300 26007KT P6SM FEW150 FM140900 14004KT P6SM FEW004 FEW150 FM141600 26008KT P6SM SKC